Time;durP1;ratioP1;P1;durP2;ratioP2;P2;SDS_P1;SDS_P2;PMS_P1;PMS_P2;Temp;Humidity;BMP_temperature;BMP_pressure;BME280_temperature;BME280_humidity;BME280_pressure;Samples;Min_cycle;Max_cycle;Signal;HPM_P1;HPM_P2
2022/12/05 00:01:31;;;;;;;24.85;12.10;;;4.60;99.90;;;;;;6250010;22;20063;-88
2022/12/05 00:03:59;;;;;;;25.23;12.57;;;4.60;99.90;;;;;;6249763;22;20016;-88
2022/12/05 00:06:27;;;;;;;26.50;11.95;;;4.60;99.90;;;;;;6276879;22;20023;-87
2022/12/05 00:08:53;;;;;;;24.50;11.98;;;4.70;99.90;;;;;;6249596;22;20054;-86
2022/12/05 00:11:21;;;;;;;24.50;11.73;;;4.70;99.90;;;;;;6277327;22;20011;-87
2022/12/05 00:13:48;;;;;;;22.13;10.48;;;4.70;99.90;;;;;;6277691;22;20032;-89
2022/12/05 00:16:17;;;;;;;21.08;10.30;;;4.70;99.90;;;;;;6277587;22;20321;-88
2022/12/05 00:18:43;;;;;;;26.25;11.18;;;4.70;99.90;;;;;;6277233;22;20314;-88
2022/12/05 00:21:15;;;;;;;24.80;12.38;;;4.70;99.90;;;;;;6249699;22;20011;-85
2022/12/05 00:23:41;;;;;;;25.30;11.90;;;4.70;99.90;;;;;;6250057;22;20094;-88
2022/12/05 00:26:07;;;;;;;26.60;12.18;;;4.80;99.90;;;;;;6249419;22;20007;-89
2022/12/05 00:28:33;;;;;;;27.27;13.32;;;4.70;99.90;;;;;;6250199;22;20042;-87
2022/12/05 00:31:04;;;;;;;24.95;12.57;;;4.80;99.90;;;;;;6276860;22;20053;-87
2022/12/05 00:33:30;;;;;;;24.77;12.93;;;4.80;99.90;;;;;;6224298;22;20018;-87
2022/12/05 00:36:01;;;;;;;24.75;12.85;;;4.80;99.90;;;;;;6250381;22;20397;-87
2022/12/05 00:38:27;;;;;;;25.55;11.95;;;4.80;99.90;;;;;;6253987;22;20026;-86
2022/12/05 00:40:52;;;;;;;25.67;13.25;;;4.80;99.90;;;;;;6281238;22;20044;-86
2022/12/05 00:43:18;;;;;;;23.63;12.10;;;4.80;99.90;;;;;;6285133;22;20011;-87
2022/12/05 00:45:43;;;;;;;26.58;13.35;;;4.80;99.90;;;;;;6255163;22;20138;-88
2022/12/05 00:48:09;;;;;;;27.58;13.40;;;4.80;99.90;;;;;;6256903;22;20031;-88
2022/12/05 00:50:35;;;;;;;26.13;12.57;;;4.80;99.90;;;;;;6255688;22;20081;-87
2022/12/05 00:53:00;;;;;;;26.92;12.68;;;4.80;99.90;;;;;;6256817;22;20056;-86
2022/12/05 00:55:26;;;;;;;26.75;13.45;;;4.80;99.90;;;;;;6256534;22;20012;-86
2022/12/05 00:57:51;;;;;;;26.42;12.75;;;4.80;99.90;;;;;;6285078;22;20043;-87
2022/12/05 01:00:17;;;;;;;27.77;13.15;;;4.80;99.90;;;;;;6286008;22;20014;-88
2022/12/05 01:02:43;;;;;;;27.98;14.05;;;4.80;99.90;;;;;;6270267;22;20007;-87
2022/12/05 01:05:09;;;;;;;27.45;13.13;;;4.80;99.90;;;;;;6251145;22;20003;-87
2022/12/05 01:07:34;;;;;;;26.52;12.98;;;4.80;99.90;;;;;;6302660;22;20008;-87
2022/12/05 01:10:00;;;;;;;28.58;13.55;;;4.80;99.90;;;;;;6302830;22;20010;-88
2022/12/05 01:12:27;;;;;;;27.98;13.52;;;4.80;99.90;;;;;;6275849;22;20015;-87
2022/12/05 01:14:54;;;;;;;26.40;12.27;;;4.90;99.90;;;;;;6276043;22;20031;-85
2022/12/05 01:17:20;;;;;;;30.42;13.75;;;4.80;99.90;;;;;;6275629;22;20011;-87
2022/12/05 01:19:45;;;;;;;27.35;13.57;;;4.90;99.90;;;;;;6275659;22;20008;-88
2022/12/05 01:22:11;;;;;;;25.95;13.25;;;4.90;99.90;;;;;;6301738;22;20050;-88
2022/12/05 01:24:36;;;;;;;28.75;14.70;;;4.90;99.90;;;;;;6302032;22;20031;-87
2022/12/05 01:27:02;;;;;;;27.60;13.70;;;4.90;99.90;;;;;;6301710;22;20007;-85
2022/12/05 01:29:28;;;;;;;27.95;13.88;;;4.90;99.90;;;;;;6301375;22;20015;-85
2022/12/05 01:31:54;;;;;;;29.75;14.10;;;4.90;99.90;;;;;;6301863;22;20048;-89
2022/12/05 01:34:20;;;;;;;28.10;14.45;;;4.90;99.90;;;;;;6275244;22;20023;-88
2022/12/05 01:36:46;;;;;;;29.73;14.80;;;4.90;99.90;;;;;;6273473;22;20019;-86
2022/12/05 01:39:12;;;;;;;29.90;14.77;;;5.00;99.90;;;;;;6274989;22;20012;-88
2022/12/05 01:41:41;;;;;;;30.55;16.23;;;5.00;99.90;;;;;;6271774;22;20329;-88
2022/12/05 01:44:10;;;;;;;27.88;14.30;;;5.00;99.90;;;;;;6274103;22;20034;-88
2022/12/05 01:46:38;;;;;;;29.92;14.88;;;5.00;99.90;;;;;;6270966;22;20024;-87
2022/12/05 01:49:11;;;;;;;32.60;15.35;;;5.00;99.90;;;;;;6250126;22;20011;-88
2022/12/05 01:51:40;;;;;;;35.10;15.95;;;5.00;99.90;;;;;;6277452;22;20012;-88
2022/12/05 01:54:07;;;;;;;34.50;15.63;;;5.00;99.90;;;;;;6277189;22;20351;-89
2022/12/05 01:56:35;;;;;;;33.30;14.82;;;4.90;99.90;;;;;;6276106;22;20018;-88
2022/12/05 01:59:03;;;;;;;29.33;13.48;;;5.00;99.90;;;;;;6248755;22;20015;-88
2022/12/05 02:01:28;;;;;;;30.02;15.02;;;5.00;99.90;;;;;;6276148;22;20318;-89
2022/12/05 02:03:57;;;;;;;29.95;15.05;;;5.00;99.90;;;;;;6248440;22;20070;-88
2022/12/05 02:06:25;;;;;;;31.35;16.58;;;5.00;99.90;;;;;;6276183;22;20007;-88
2022/12/05 02:08:53;;;;;;;33.17;15.82;;;5.00;99.90;;;;;;6248252;22;20054;-89
2022/12/05 02:11:19;;;;;;;30.17;16.17;;;5.00;99.90;;;;;;6248772;22;20018;-87
2022/12/05 02:13:58;;;;;;;37.35;15.73;;;5.00;99.90;;;;;;6275469;22;20078;-88
2022/12/05 02:17:04;;;;;;;34.28;17.08;;;5.00;99.90;;;;;;6275684;22;20012;-88
2022/12/05 02:19:41;;;;;;;37.00;16.60;;;5.00;99.90;;;;;;6273131;22;20071;-87
2022/12/05 02:22:28;;;;;;;32.40;15.35;;;5.10;99.90;;;;;;6248104;22;20016;-88
2022/12/05 02:25:27;;;;;;;37.28;17.40;;;5.10;99.90;;;;;;6248610;22;20121;-89
2022/12/05 02:27:56;;;;;;;39.97;16.73;;;5.10;99.90;;;;;;6248326;22;20023;-88
2022/12/05 02:30:22;;;;;;;33.90;16.10;;;5.10;99.90;;;;;;6275590;22;20117;-89
2022/12/05 02:33:25;;;;;;;35.92;17.25;;;5.10;99.90;;;;;;6275794;22;20008;-90
2022/12/05 02:36:22;;;;;;;37.72;17.67;;;5.10;99.90;;;;;;6275432;22;20019;-89
2022/12/05 02:39:06;;;;;;;35.85;17.20;;;5.10;99.90;;;;;;6276507;22;20269;-90
2022/12/05 02:41:47;;;;;;;40.70;18.48;;;5.10;99.90;;;;;;6275680;22;20082;-87
2022/12/05 02:44:33;;;;;;;41.30;19.95;;;5.10;99.90;;;;;;6275449;22;20015;-88
2022/12/05 02:46:59;;;;;;;40.50;18.08;;;5.10;99.90;;;;;;6248840;22;20011;-87
2022/12/05 02:49:30;;;;;;;41.28;18.73;;;5.20;99.90;;;;;;6275778;22;20050;-90
2022/12/05 02:51:58;;;;;;;38.60;17.73;;;5.10;99.90;;;;;;6250779;22;20007;-88
2022/12/05 02:54:29;;;;;;;39.30;18.48;;;5.10;99.90;;;;;;6250736;22;20460;-89
2022/12/05 02:56:57;;;;;;;38.22;17.77;;;5.20;99.90;;;;;;6250202;22;20016;-89
2022/12/05 02:59:23;;;;;;;42.75;18.55;;;5.20;99.90;;;;;;6250399;22;20015;-88
2022/12/05 03:01:49;;;;;;;36.25;17.50;;;5.20;99.90;;;;;;6250888;22;20016;-89
2022/12/05 03:04:16;;;;;;;42.65;18.88;;;5.20;99.90;;;;;;6253275;22;20016;-89
2022/12/05 03:06:50;;;;;;;39.67;17.63;;;5.20;99.90;;;;;;6259747;22;20066;-89
2022/12/05 03:09:22;;;;;;;42.08;18.63;;;5.20;99.90;;;;;;6283577;22;20015;-91
2022/12/05 03:12:03;;;;;;;39.92;17.88;;;5.20;99.90;;;;;;6250634;22;20039;-89
2022/12/05 03:14:32;;;;;;;39.88;18.65;;;5.20;99.90;;;;;;6259369;22;20061;-89
2022/12/05 03:17:05;;;;;;;42.42;18.38;;;5.20;99.90;;;;;;6227814;22;20017;-88
2022/12/05 03:19:55;;;;;;;37.95;16.80;;;5.30;99.90;;;;;;6252938;22;20015;-90
2022/12/05 03:22:34;;;;;;;39.95;17.67;;;5.30;99.90;;;;;;6227811;22;20019;-89
2022/12/05 03:25:01;;;;;;;37.25;17.65;;;5.30;99.90;;;;;;6277425;22;20054;-89
2022/12/05 03:27:46;;;;;;;38.10;17.45;;;5.30;99.90;;;;;;6250114;22;20088;-89
2022/12/05 03:30:15;;;;;;;43.58;17.55;;;5.30;99.90;;;;;;6250472;22;20016;-89
2022/12/05 03:32:49;;;;;;;37.90;16.83;;;5.30;99.90;;;;;;6249105;22;20062;-92
2022/12/05 03:35:24;;;;;;;37.50;18.25;;;5.30;99.90;;;;;;6284035;22;20007;-89
2022/12/05 03:37:56;;;;;;;40.72;17.10;;;5.40;99.90;;;;;;6251522;22;20022;-91
2022/12/05 03:40:40;;;;;;;39.03;16.08;;;5.40;99.90;;;;;;6277515;22;20531;-91
2022/12/05 03:43:13;;;;;;;36.00;17.15;;;5.30;99.90;;;;;;6250518;22;20007;-91
2022/12/05 03:45:53;;;;;;;29.98;15.30;;;5.40;99.90;;;;;;6277440;22;20502;-91
2022/12/05 03:48:58;;;;;;;31.23;15.25;;;5.40;99.90;;;;;;6249330;22;20349;-90
2022/12/05 03:51:59;;;;;;;36.03;16.00;;;5.30;99.90;;;;;;6278564;22;20087;-91
2022/12/05 03:54:30;;;;;;;31.10;13.68;;;5.40;99.90;;;;;;6214868;22;20086;-91
2022/12/05 03:57:07;;;;;;;31.03;14.53;;;5.40;99.90;;;;;;6258142;22;20022;-91
2022/12/05 03:59:45;;;;;;;30.98;13.45;;;5.40;99.90;;;;;;6276121;22;20008;-90
2022/12/05 04:02:34;;;;;;;28.27;13.32;;;5.40;99.90;;;;;;6276271;22;20015;-90
2022/12/05 04:05:12;;;;;;;29.63;13.60;;;5.40;99.90;;;;;;6302939;22;20006;-90
2022/12/05 04:07:39;;;;;;;31.63;13.45;;;5.40;99.90;;;;;;6277001;22;20003;-90
2022/12/05 04:10:20;;;;;;;28.67;13.75;;;5.40;99.90;;;;;;6303496;22;20003;-90
2022/12/05 04:12:50;;;;;;;27.52;13.07;;;5.40;99.90;;;;;;6303745;22;20008;-88
2022/12/05 04:17:02;;;;;;;28.23;12.90;;;5.40;99.90;;;;;;6250950;22;20030;-90
2022/12/05 04:18:19;;;;;;;29.90;12.60;;;5.40;99.90;;;;;;6303533;22;20003;-90
2022/12/05 04:23:32;;;;;;;24.42;12.30;;;5.40;99.90;;;;;;6278480;22;20093;-90
2022/12/05 04:26:34;;;;;;;22.80;11.95;;;5.40;99.90;;;;;;6250734;22;20069;-90
2022/12/05 04:29:10;;;;;;;26.77;12.40;;;5.40;99.90;;;;;;6220181;22;20310;-91
2022/12/05 04:31:43;;;;;;;26.60;11.70;;;5.40;99.90;;;;;;6250294;22;20087;-90
2022/12/05 04:34:13;;;;;;;21.10;10.98;;;5.50;99.90;;;;;;6250363;22;20342;-90
2022/12/05 04:36:45;;;;;;;25.23;12.23;;;5.40;99.90;;;;;;6278140;22;20038;-90
2022/12/05 04:39:24;;;;;;;20.85;11.85;;;5.50;99.90;;;;;;6250118;22;20019;-91
2022/12/05 04:41:54;;;;;;;23.02;12.13;;;5.50;99.90;;;;;;6224000;22;20015;-90
2022/12/05 04:44:26;;;;;;;23.73;11.60;;;5.50;99.90;;;;;;6225127;22;20019;-90
2022/12/05 04:46:55;;;;;;;21.95;11.15;;;5.50;99.90;;;;;;6276073;22;20012;-90
2022/12/05 04:49:26;;;;;;;24.17;11.73;;;5.50;99.90;;;;;;6249978;22;20090;-90
2022/12/05 04:51:54;;;;;;;24.75;12.07;;;5.50;99.90;;;;;;6249867;22;20094;-89
2022/12/05 04:54:53;;;;;;;22.42;11.10;;;5.50;99.90;;;;;;6249868;22;20445;-90
2022/12/05 04:57:29;;;;;;;23.67;11.68;;;5.50;99.90;;;;;;6249753;22;20086;-90
2022/12/05 04:59:55;;;;;;;20.13;11.05;;;5.40;99.90;;;;;;6249731;22;20092;-90
2022/12/05 05:02:32;;;;;;;21.17;11.32;;;5.50;99.90;;;;;;6277286;22;20021;-91
2022/12/05 05:05:01;;;;;;;21.15;11.25;;;5.60;99.90;;;;;;6276692;22;20057;-91
2022/12/05 05:07:27;;;;;;;19.50;10.40;;;5.50;99.90;;;;;;6249680;22;20015;-91
2022/12/05 05:09:54;;;;;;;21.48;11.27;;;5.50;99.90;;;;;;6223607;22;20020;-91
2022/12/05 05:12:19;;;;;;;20.17;10.75;;;5.50;99.90;;;;;;6276400;22;20207;-91
2022/12/05 05:14:45;;;;;;;19.83;10.75;;;5.50;99.90;;;;;;6248497;22;20023;-90
2022/12/05 05:17:10;;;;;;;20.38;10.32;;;5.50;99.90;;;;;;6277101;22;20016;-91
2022/12/05 05:19:36;;;;;;;16.95;9.07;;;5.50;99.90;;;;;;6249731;22;20026;-90
2022/12/05 05:22:02;;;;;;;16.52;8.73;;;5.50;99.90;;;;;;6248275;22;20018;-90
2022/12/05 05:24:27;;;;;;;17.70;8.85;;;5.50;99.90;;;;;;6249315;22;20069;-90
2022/12/05 05:26:53;;;;;;;16.98;8.32;;;5.50;99.90;;;;;;6250237;22;20122;-91
2022/12/05 05:29:19;;;;;;;13.93;7.40;;;5.50;99.90;;;;;;6259075;22;20138;-90
2022/12/05 05:31:45;;;;;;;13.20;7.03;;;5.50;99.90;;;;;;6258194;22;20043;-91
2022/12/05 05:34:11;;;;;;;12.15;6.00;;;5.50;99.90;;;;;;6276328;22;20016;-90
2022/12/05 05:36:37;;;;;;;11.60;6.22;;;5.50;99.90;;;;;;6274759;22;20054;-91
2022/12/05 05:39:04;;;;;;;11.60;6.32;;;5.60;99.90;;;;;;6248942;22;20015;-88
2022/12/05 05:41:35;;;;;;;11.25;5.82;;;5.60;99.90;;;;;;6274330;22;20019;-91
2022/12/05 05:44:01;;;;;;;11.65;5.88;;;5.50;99.90;;;;;;6248543;22;20043;-91
2022/12/05 05:46:31;;;;;;;10.43;5.25;;;5.50;99.90;;;;;;6249511;22;20019;-91
2022/12/05 05:48:57;;;;;;;11.32;5.82;;;5.60;99.90;;;;;;6249407;22;20405;-89
2022/12/05 05:51:28;;;;;;;10.52;5.50;;;5.50;99.90;;;;;;6273748;22;20020;-90
2022/12/05 05:53:55;;;;;;;11.73;5.70;;;5.50;99.90;;;;;;6248313;22;20007;-92
2022/12/05 05:56:21;;;;;;;10.68;5.43;;;5.50;99.90;;;;;;6251665;22;20019;-90
2022/12/05 05:58:58;;;;;;;11.02;5.40;;;5.50;99.90;;;;;;6251717;22;20016;-92
2022/12/05 06:01:24;;;;;;;12.13;6.13;;;5.60;99.90;;;;;;6228485;22;20073;-90
2022/12/05 06:03:50;;;;;;;11.30;5.38;;;5.50;99.90;;;;;;6252435;22;20024;-90
2022/12/05 06:06:16;;;;;;;11.02;5.82;;;5.60;99.90;;;;;;6249833;22;20016;-91
2022/12/05 06:08:43;;;;;;;10.50;5.32;;;5.60;99.90;;;;;;6275935;22;20083;-87
2022/12/05 06:11:17;;;;;;;10.88;5.40;;;5.60;99.90;;;;;;6248841;22;20337;-91
2022/12/05 06:13:43;;;;;;;11.73;5.35;;;5.60;99.90;;;;;;6275853;22;20007;-92
2022/12/05 06:16:10;;;;;;;10.23;5.68;;;5.50;99.90;;;;;;6248877;22;20087;-91
2022/12/05 06:18:36;;;;;;;11.02;5.20;;;5.60;99.90;;;;;;6249469;22;20357;-91
2022/12/05 06:21:04;;;;;;;10.48;5.60;;;5.60;99.90;;;;;;6248608;22;20031;-90
2022/12/05 06:23:30;;;;;;;10.80;6.00;;;5.60;99.90;;;;;;6251165;22;20084;-91
2022/12/05 06:25:56;;;;;;;13.63;6.15;;;5.60;99.90;;;;;;6250855;22;20087;-92
2022/12/05 06:28:24;;;;;;;12.55;5.90;;;5.60;99.90;;;;;;6250290;22;20016;-92
2022/12/05 06:30:50;;;;;;;11.90;5.93;;;5.60;99.90;;;;;;6276506;22;20031;-91
2022/12/05 06:33:15;;;;;;;11.05;5.63;;;5.60;99.90;;;;;;6278056;22;20023;-91
2022/12/05 06:35:41;;;;;;;11.30;5.50;;;5.60;99.90;;;;;;6278597;22;20007;-91
2022/12/05 06:38:08;;;;;;;12.63;5.95;;;5.60;99.90;;;;;;6275933;22;20016;-91
2022/12/05 06:40:34;;;;;;;10.38;5.95;;;5.50;99.90;;;;;;6225899;22;20137;-92
2022/12/05 06:42:59;;;;;;;12.32;6.68;;;5.60;99.90;;;;;;6277617;22;20012;-91
2022/12/05 06:45:27;;;;;;;12.40;6.35;;;5.70;99.90;;;;;;6276621;22;20491;-91
2022/12/05 06:47:52;;;;;;;13.20;6.60;;;5.60;99.90;;;;;;6251139;22;20174;-94
2022/12/05 06:50:18;;;;;;;11.50;5.93;;;5.60;99.90;;;;;;6231258;22;20012;-94
2022/12/05 06:52:44;;;;;;;13.00;6.18;;;5.60;99.90;;;;;;6282511;22;20008;-95
2022/12/05 06:55:10;;;;;;;10.02;5.38;;;5.60;99.90;;;;;;6257311;22;20433;-95
2022/12/05 06:57:35;;;;;;;12.63;4.93;;;5.60;99.90;;;;;;6227880;22;20429;-95
2022/12/05 07:02:49;;;;;;;9.13;4.65;;;5.60;99.90;;;;;;6254706;22;20118;-94
2022/12/05 07:05:15;;;;;;;9.00;4.43;;;5.60;99.90;;;;;;6256428;22;20016;-94
2022/12/05 07:07:41;;;;;;;9.55;4.38;;;5.60;99.90;;;;;;6255223;22;20035;-94
2022/12/05 07:10:07;;;;;;;12.13;5.20;;;5.60;99.90;;;;;;6251602;22;20008;-94
2022/12/05 07:12:32;;;;;;;9.50;4.28;;;5.60;99.90;;;;;;6282214;22;20035;-94
2022/12/05 07:14:59;;;;;;;10.75;4.60;;;5.60;99.90;;;;;;6233436;22;20007;-95
2022/12/05 07:17:26;;;;;;;10.00;4.18;;;5.60;99.90;;;;;;6254960;22;20011;-93
2022/12/05 07:19:52;;;;;;;9.18;3.97;;;5.60;99.90;;;;;;6256539;22;20141;-95
2022/12/05 07:22:20;;;;;;;9.25;4.35;;;5.60;99.90;;;;;;6237283;22;20022;-96
2022/12/05 07:24:46;;;;;;;11.48;4.18;;;5.60;99.90;;;;;;6244396;22;20022;-95
2022/12/05 07:27:13;;;;;;;9.88;4.28;;;5.60;99.90;;;;;;6239566;22;20016;-92
2022/12/05 07:29:39;;;;;;;9.93;4.22;;;5.60;99.90;;;;;;6283296;22;20097;-94
2022/12/05 07:32:06;;;;;;;10.45;4.47;;;5.60;99.90;;;;;;6231222;22;20051;-95
2022/12/05 07:34:31;;;;;;;11.38;5.15;;;5.60;99.90;;;;;;6233278;22;20099;-94
2022/12/05 07:36:58;;;;;;;9.77;4.65;;;5.60;99.90;;;;;;6231838;22;20012;-95
2022/12/05 07:39:24;;;;;;;10.35;4.60;;;5.60;99.90;;;;;;6258759;22;20016;-95
2022/12/05 07:41:50;;;;;;;11.98;4.93;;;5.60;99.90;;;;;;6233953;22;20034;-94
2022/12/05 07:44:16;;;;;;;10.15;5.05;;;5.60;99.90;;;;;;6252300;23;20047;-94
2022/12/05 07:46:42;;;;;;;11.52;5.63;;;5.60;99.90;;;;;;6230576;23;20046;-94
2022/12/05 07:49:07;;;;;;;11.65;5.10;;;5.70;99.90;;;;;;6231637;23;20012;-94
2022/12/05 07:51:34;;;;;;;10.77;4.78;;;5.60;99.90;;;;;;6249967;23;20016;-96
2022/12/05 07:54:00;;;;;;;10.50;5.03;;;5.70;99.90;;;;;;6221223;23;20018;-92
2022/12/05 07:56:30;;;;;;;11.98;5.95;;;5.60;99.90;;;;;;6275645;22;20035;-94
2022/12/05 07:58:56;;;;;;;11.05;5.55;;;5.60;99.90;;;;;;6221394;23;20124;-95
2022/12/05 08:01:27;;;;;;;11.88;5.95;;;5.70;99.90;;;;;;6248943;23;20016;-95
2022/12/05 08:03:56;;;;;;;14.50;6.15;;;5.70;99.90;;;;;;6248212;23;20016;-94
2022/12/05 08:06:27;;;;;;;12.63;6.05;;;5.70;99.90;;;;;;6221978;23;20016;-95
2022/12/05 08:08:53;;;;;;;11.80;5.10;;;5.60;99.90;;;;;;6248206;23;20023;-92
2022/12/05 08:11:24;;;;;;;15.15;5.95;;;5.70;99.90;;;;;;6222030;23;20015;-90
2022/12/05 08:13:50;;;;;;;11.98;6.05;;;5.70;99.90;;;;;;6245246;23;20182;-87
2022/12/05 08:16:19;;;;;;;15.77;5.85;;;5.60;99.90;;;;;;6246185;22;19996;-92
2022/12/05 08:18:45;;;;;;;13.43;5.97;;;5.60;99.90;;;;;;6248391;22;20063;-91
2022/12/05 08:21:16;;;;;;;11.43;5.20;;;5.60;99.90;;;;;;6246816;23;20016;-92
2022/12/05 08:23:42;;;;;;;12.13;5.43;;;5.70;99.90;;;;;;6272198;22;20016;-94
2022/12/05 08:26:14;;;;;;;11.55;6.03;;;5.60;99.90;;;;;;6252068;23;20321;-89
2022/12/05 08:28:41;;;;;;;11.88;5.43;;;5.70;99.90;;;;;;6234053;23;20031;-90
2022/12/05 08:31:15;;;;;;;12.70;5.60;;;5.70;99.90;;;;;;6281439;22;20035;-90
2022/12/05 08:33:42;;;;;;;12.73;6.63;;;5.70;99.90;;;;;;6262130;22;20089;-91
2022/12/05 08:36:10;;;;;;;13.23;6.43;;;5.70;99.90;;;;;;6257683;23;20341;-91
2022/12/05 08:38:36;;;;;;;14.25;6.35;;;5.70;99.90;;;;;;6260496;22;20012;-88
2022/12/05 08:41:04;;;;;;;12.75;6.05;;;5.70;99.90;;;;;;6234255;23;20094;-91
2022/12/05 08:43:30;;;;;;;16.15;6.53;;;5.70;99.90;;;;;;6284672;22;20043;-89
2022/12/05 08:45:56;;;;;;;13.63;6.05;;;5.80;99.90;;;;;;6266321;22;20110;-88
2022/12/05 08:48:23;;;;;;;16.02;7.47;;;5.70;99.90;;;;;;6269231;22;20016;-91
2022/12/05 08:50:49;;;;;;;14.23;6.43;;;5.70;99.90;;;;;;6266503;22;20008;-89
2022/12/05 08:53:14;;;;;;;11.15;5.90;;;5.60;99.90;;;;;;6226131;22;20050;-90
2022/12/05 08:55:40;;;;;;;12.07;5.78;;;5.70;99.90;;;;;;6252914;22;20012;-90
2022/12/05 08:58:06;;;;;;;13.38;6.00;;;5.70;99.90;;;;;;6251941;22;20012;-87
2022/12/05 09:00:32;;;;;;;14.65;6.40;;;5.70;99.90;;;;;;6277836;22;20099;-88
2022/12/05 09:02:57;;;;;;;11.95;5.85;;;5.60;99.90;;;;;;6225583;22;20092;-88
2022/12/05 09:05:24;;;;;;;12.45;5.47;;;5.70;99.90;;;;;;6251209;22;20094;-89
2022/12/05 09:07:49;;;;;;;12.23;5.55;;;5.70;99.90;;;;;;6278650;22;20018;-91
2022/12/05 09:10:15;;;;;;;14.40;6.55;;;5.60;99.90;;;;;;6282654;22;20008;-91
2022/12/05 09:12:41;;;;;;;16.25;6.18;;;5.70;99.90;;;;;;6294723;22;20026;-90
2022/12/05 09:15:09;;;;;;;15.45;6.60;;;5.60;99.90;;;;;;6301738;22;20008;-91
2022/12/05 09:17:35;;;;;;;14.00;6.10;;;5.60;99.90;;;;;;6250226;22;20007;-88
2022/12/05 09:20:01;;;;;;;13.27;6.05;;;5.60;99.90;;;;;;6275442;22;20016;-89
2022/12/05 09:22:26;;;;;;;13.93;6.22;;;5.60;99.90;;;;;;6250534;22;20045;-90
2022/12/05 09:24:52;;;;;;;15.27;6.28;;;5.60;99.90;;;;;;6275965;22;20004;-90
2022/12/05 09:27:18;;;;;;;16.67;6.93;;;5.60;99.90;;;;;;6301866;22;20015;-90
2022/12/05 09:29:43;;;;;;;15.07;7.22;;;5.60;99.90;;;;;;6250625;22;20007;-92
2022/12/05 09:32:10;;;;;;;13.35;5.82;;;5.60;99.90;;;;;;6302777;22;20016;-90
2022/12/05 09:34:38;;;;;;;13.90;7.18;;;5.60;99.90;;;;;;6275643;22;20030;-90
2022/12/05 09:37:06;;;;;;;14.88;6.15;;;5.60;99.90;;;;;;6301387;22;20003;-92
2022/12/05 09:39:32;;;;;;;13.15;6.28;;;5.60;99.90;;;;;;6276184;22;20063;-90
2022/12/05 09:42:22;;;;;;;14.85;6.22;;;5.60;99.90;;;;;;6276392;22;20023;-89
2022/12/05 09:45:16;;;;;;;12.68;5.60;;;5.60;99.90;;;;;;6275793;22;20008;-88
2022/12/05 09:47:47;;;;;;;13.90;5.65;;;5.60;99.90;;;;;;6275622;22;20053;-89
2022/12/05 09:50:32;;;;;;;12.07;5.75;;;5.60;99.90;;;;;;6275486;22;20067;-89
2022/12/05 09:53:30;;;;;;;12.23;5.40;;;5.60;99.90;;;;;;6249347;22;20019;-88
2022/12/05 09:56:05;;;;;;;13.00;6.38;;;5.60;99.90;;;;;;6274415;22;20079;-89
2022/12/05 09:58:36;;;;;;;11.82;5.43;;;5.60;99.90;;;;;;6244264;22;20030;-88
2022/12/05 10:01:07;;;;;;;;;;;5.60;99.90;;;;;;6253373;22;20050;-90
2022/12/05 10:03:46;;;;;;;13.70;5.30;;;5.50;99.90;;;;;;6252122;22;19959;-89
2022/12/05 10:06:19;;;;;;;12.40;5.32;;;5.50;99.90;;;;;;6278582;22;20222;-92
2022/12/05 10:09:07;;;;;;;12.55;5.65;;;5.50;99.90;;;;;;6251987;22;20083;-89
2022/12/05 10:11:57;;;;;;;12.57;5.38;;;5.50;99.90;;;;;;6252194;22;20042;-89
2022/12/05 10:14:54;;;;;;;14.98;5.90;;;5.50;99.90;;;;;;6279338;22;20008;-89
2022/12/05 10:17:34;;;;;;;12.90;5.45;;;5.50;99.90;;;;;;6277991;22;20061;-91
2022/12/05 10:20:10;;;;;;;11.60;5.32;;;5.50;99.90;;;;;;6251314;22;20054;-90
2022/12/05 10:23:01;;;;;;;15.90;6.05;;;5.50;99.90;;;;;;6225965;22;20098;-86
2022/12/05 10:25:30;;;;;;;13.02;5.35;;;5.50;99.90;;;;;;6277843;22;20011;-94
2022/12/05 10:28:04;;;;;;;12.07;5.50;;;5.50;99.90;;;;;;6280001;22;20011;-94
2022/12/05 10:30:32;;;;;;;14.13;5.82;;;5.60;99.90;;;;;;6229309;22;20015;-90
2022/12/05 10:33:05;;;;;;;12.18;5.07;;;5.50;99.90;;;;;;6227452;22;20008;-92
2022/12/05 10:35:32;;;;;;;12.02;5.05;;;5.50;99.90;;;;;;6252534;22;20004;-92
2022/12/05 10:38:20;;;;;;;13.63;5.13;;;5.60;99.90;;;;;;6252936;22;20369;-93
2022/12/05 10:40:50;;;;;;;14.20;6.15;;;5.60;99.90;;;;;;6211932;22;20035;-90
2022/12/05 10:43:27;;;;;;;11.07;4.83;;;5.60;99.90;;;;;;6280378;22;20084;-90
2022/12/05 10:45:54;;;;;;;11.98;6.18;;;5.60;99.90;;;;;;6228202;22;20779;-92
2022/12/05 10:48:21;;;;;;;12.63;5.57;;;5.60;99.90;;;;;;6252259;22;20019;-89
2022/12/05 10:50:54;;;;;;;14.80;5.75;;;5.60;99.90;;;;;;6254963;22;20008;-92
2022/12/05 10:53:30;;;;;;;14.45;6.07;;;5.50;99.90;;;;;;6224693;22;20012;-91
2022/12/05 10:55:56;;;;;;;15.07;6.07;;;5.50;99.90;;;;;;6252319;22;20046;-93
2022/12/05 10:58:27;;;;;;;14.98;6.55;;;5.50;99.90;;;;;;6226608;22;20015;-92
2022/12/05 11:01:06;;;;;;;15.02;6.15;;;5.50;99.90;;;;;;6251232;22;20073;-92
2022/12/05 11:03:37;;;;;;;16.45;6.35;;;5.50;99.90;;;;;;6250816;22;20043;-92
2022/12/05 11:06:47;;;;;;;13.65;5.85;;;5.50;99.90;;;;;;6226571;22;20026;-93
2022/12/05 11:09:18;;;;;;;15.20;6.15;;;5.50;99.90;;;;;;6182987;23;20017;-91
2022/12/05 11:12:01;;;;;;;13.60;6.28;;;5.50;99.90;;;;;;6158669;23;20073;-92
2022/12/05 11:14:28;;;;;;;14.68;6.38;;;5.50;99.90;;;;;;6185179;23;20013;-90
2022/12/05 11:16:59;;;;;;;15.40;6.07;;;5.50;99.90;;;;;;6140738;23;20012;-92
2022/12/05 11:19:34;;;;;;;13.70;6.95;;;5.50;99.90;;;;;;6172707;23;20048;-92
2022/12/05 11:22:00;;;;;;;14.43;5.85;;;5.50;99.90;;;;;;6189545;23;20351;-93
2022/12/05 11:24:29;;;;;;;12.68;5.70;;;5.50;99.90;;;;;;6189027;23;20393;-92
2022/12/05 11:26:58;;;;;;;14.75;6.68;;;5.50;99.90;;;;;;6164718;23;20013;-94
2022/12/05 11:29:36;;;;;;;14.10;5.85;;;5.50;99.90;;;;;;6161483;23;20437;-94
2022/12/05 11:32:04;;;;;;;16.60;6.47;;;5.50;99.90;;;;;;6160167;23;20009;-93
2022/12/05 11:34:45;;;;;;;15.02;7.18;;;5.50;99.90;;;;;;6162764;23;20017;-93
2022/12/05 11:37:17;;;;;;;15.07;6.20;;;5.50;99.90;;;;;;6169034;23;20103;-92
2022/12/05 11:39:43;;;;;;;15.00;6.35;;;5.50;99.90;;;;;;6167879;23;20082;-93
2022/12/05 11:42:39;;;;;;;14.63;6.55;;;5.50;99.90;;;;;;6205312;22;20016;-95
2022/12/05 11:45:38;;;;;;;13.68;6.75;;;5.50;99.90;;;;;;6280405;22;20349;-94
2022/12/05 11:48:10;;;;;;;12.32;6.32;;;5.50;99.90;;;;;;6228065;22;20019;-92
2022/12/05 11:51:05;;;;;;;12.30;5.70;;;5.50;99.90;;;;;;6253994;22;20038;-92
2022/12/05 11:53:37;;;;;;;11.57;5.50;;;5.60;99.90;;;;;;6227623;22;20014;-93
2022/12/05 11:56:27;;;;;;;12.40;5.30;;;5.60;99.90;;;;;;6226114;22;20022;-92
2022/12/05 11:59:20;;;;;;;11.57;5.00;;;5.60;99.90;;;;;;6278467;22;20015;-95
2022/12/05 12:02:01;;;;;;;10.27;4.45;;;5.50;99.90;;;;;;6231002;22;20003;-93
2022/12/05 12:04:45;;;;;;;13.15;5.53;;;5.60;99.90;;;;;;6227769;22;20019;-94
2022/12/05 12:07:24;;;;;;;13.55;5.80;;;5.60;99.90;;;;;;6228165;22;20015;-94
2022/12/05 12:10:01;;;;;;;12.38;5.03;;;5.60;99.90;;;;;;6251683;22;20042;-94
2022/12/05 12:12:39;;;;;;;11.45;5.25;;;5.60;99.90;;;;;;6227406;22;20325;-92
2022/12/05 12:15:23;;;;;;;12.70;5.57;;;5.60;99.90;;;;;;6227943;22;20153;-93
2022/12/05 12:18:07;;;;;;;12.88;5.93;;;5.60;99.90;;;;;;6278845;22;20083;-92
2022/12/05 12:21:06;;;;;;;13.13;4.57;;;5.60;99.90;;;;;;6251784;22;20379;-92
2022/12/05 12:24:12;;;;;;;10.73;4.25;;;5.60;99.90;;;;;;6227771;22;20007;-92
2022/12/05 12:26:54;;;;;;;10.52;4.43;;;5.60;99.90;;;;;;6250755;22;20014;-93
2022/12/05 12:29:47;;;;;;;10.57;4.22;;;5.60;99.90;;;;;;6229353;22;20114;-92
2022/12/05 12:32:31;;;;;;;8.65;3.83;;;5.70;99.90;;;;;;6249839;22;20063;-93
2022/12/05 12:35:15;;;;;;;9.65;4.22;;;5.70;99.90;;;;;;6251286;22;20175;-94
2022/12/05 12:37:59;;;;;;;11.40;4.70;;;5.70;99.90;;;;;;6226195;22;20012;-93
2022/12/05 12:40:57;;;;;;;9.63;4.45;;;5.70;99.90;;;;;;6227799;22;20034;-93
2022/12/05 12:43:46;;;;;;;8.77;4.28;;;5.70;99.90;;;;;;6159428;23;20025;-94
2022/12/05 12:46:39;;;;;;;9.32;3.75;;;5.70;99.90;;;;;;6159697;23;20024;-93
2022/12/05 12:49:35;;;;;;;9.75;3.80;;;5.70;99.90;;;;;;6162695;23;20099;-95
2022/12/05 12:52:13;;;;;;;8.95;3.72;;;5.60;99.90;;;;;;6184608;23;20434;-94
2022/12/05 12:54:39;;;;;;;10.02;4.50;;;5.60;99.90;;;;;;6161282;23;20013;-96
2022/12/05 12:57:26;;;;;;;10.48;3.53;;;5.70;99.90;;;;;;6160896;23;20016;-95
2022/12/05 13:00:11;;;;;;;10.23;4.78;;;5.60;99.90;;;;;;6161319;23;20098;-94
2022/12/05 13:02:47;;;;;;;10.13;4.78;;;5.60;99.90;;;;;;6186087;23;20091;-94
2022/12/05 13:05:22;;;;;;;13.38;8.15;;;5.60;99.90;;;;;;6160779;23;20009;-95
2022/12/05 13:08:03;;;;;;;13.52;6.00;;;5.70;99.90;;;;;;6156000;23;20013;-93
2022/12/05 13:10:36;;;;;;;13.10;6.65;;;5.70;99.90;;;;;;6133483;23;20081;-93
2022/12/05 13:13:05;;;;;;;15.52;8.02;;;5.70;99.90;;;;;;6186804;23;20061;-92
2022/12/05 13:15:35;;;;;;;10.25;4.22;;;5.70;99.90;;;;;;6170177;23;20021;-92